createdAt,value
2018-03-03T00:00:00.504Z,86.90
2018-03-03T00:02:28.047Z,87.00
2018-03-03T00:04:55.560Z,86.90
2018-03-03T00:07:23.093Z,87.00
2018-03-03T00:09:50.609Z,87.00
2018-03-03T00:12:18.123Z,86.90
2018-03-03T00:14:45.655Z,86.90
2018-03-03T00:17:13.159Z,86.70
2018-03-03T00:19:41.237Z,86.80
2018-03-03T00:22:09.151Z,86.90
2018-03-03T00:24:36.792Z,86.90
2018-03-03T00:27:04.351Z,86.90
2018-03-03T00:29:31.892Z,86.90
2018-03-03T00:31:59.407Z,86.90
2018-03-03T00:34:26.957Z,86.90
2018-03-03T00:36:54.591Z,87.00
2018-03-03T00:39:22.126Z,87.00
2018-03-03T00:41:49.636Z,87.00
2018-03-03T00:44:17.192Z,87.20
2018-03-03T00:46:44.699Z,87.10
2018-03-03T00:49:12.240Z,87.30
2018-03-03T00:51:40.151Z,87.10
2018-03-03T00:54:07.781Z,87.10
2018-03-03T00:56:35.356Z,87.10
2018-03-03T00:59:02.930Z,87.40
2018-03-03T01:01:30.470Z,87.50
2018-03-03T01:03:57.979Z,87.40
2018-03-03T01:06:25.588Z,87.50
2018-03-03T01:08:53.094Z,87.40
2018-03-03T01:11:20.634Z,87.40
2018-03-03T01:13:48.143Z,87.40
2018-03-03T01:16:16.083Z,87.30
2018-03-03T01:18:43.588Z,87.30
2018-03-03T01:21:11.129Z,87.30
2018-03-03T01:23:38.637Z,87.30
2018-03-03T01:26:06.161Z,87.20
2018-03-03T01:28:33.675Z,87.00
2018-03-03T01:31:01.283Z,87.00
2018-03-03T01:33:28.799Z,86.90
2018-03-03T01:35:56.732Z,86.90
2018-03-03T01:38:24.263Z,86.90
2018-03-03T01:40:51.813Z,86.80
2018-03-03T01:43:19.323Z,86.90
2018-03-03T01:45:46.832Z,86.80
2018-03-03T01:48:14.365Z,86.60
2018-03-03T01:50:42.300Z,86.30
2018-03-03T01:53:09.836Z,86.30
2018-03-03T01:55:37.351Z,86.20
2018-03-03T01:58:05.291Z,85.80
2018-03-03T02:00:32.806Z,85.80
2018-03-03T02:03:00.339Z,85.70
2018-03-03T02:05:27.926Z,85.70
2018-03-03T02:07:55.559Z,85.70
2018-03-03T02:10:23.080Z,85.70
2018-03-03T02:12:50.614Z,85.50
2018-03-03T02:15:18.142Z,85.60
2018-03-03T02:17:45.692Z,85.50
2018-03-03T02:20:13.215Z,85.20
2018-03-03T02:22:40.735Z,85.40
2018-03-03T02:25:08.273Z,85.10
2018-03-03T02:27:35.866Z,84.80
2018-03-03T02:30:03.412Z,84.70
2018-03-03T02:32:30.923Z,84.80
2018-03-03T02:34:58.860Z,84.80
2018-03-03T02:37:26.406Z,84.80
2018-03-03T02:39:54.036Z,84.70
2018-03-03T02:42:21.600Z,84.60
2018-03-03T02:44:49.140Z,84.30
2018-03-03T02:47:16.657Z,84.20
2018-03-03T02:49:44.207Z,84.30
2018-03-03T02:52:11.868Z,84.30
2018-03-03T02:54:39.508Z,84.20
2018-03-03T02:57:07.038Z,84.00
2018-03-03T02:59:34.563Z,84.00
2018-03-03T03:02:02.119Z,84.00
2018-03-03T03:04:29.635Z,83.90
2018-03-03T03:06:57.167Z,83.80
2018-03-03T03:09:25.089Z,83.80
2018-03-03T03:11:52.630Z,83.80
2018-03-03T03:14:20.143Z,83.50
2018-03-03T03:16:48.082Z,83.40
2018-03-03T03:19:15.599Z,83.40
2018-03-03T03:21:43.149Z,83.30
2018-03-03T03:24:10.668Z,83.20
2018-03-03T03:26:38.187Z,83.10
2018-03-03T03:29:05.719Z,83.00
2018-03-03T03:31:33.241Z,83.00
2018-03-03T03:34:00.775Z,83.00
2018-03-03T03:36:28.288Z,83.00
2018-03-03T03:38:55.832Z,83.10
2018-03-03T03:41:23.828Z,83.10
2018-03-03T03:43:51.362Z,83.10
2018-03-03T03:46:19.283Z,83.20
2018-03-03T03:48:46.815Z,83.20
2018-03-03T03:51:14.327Z,83.20
2018-03-03T03:53:42.267Z,83.20
2018-03-03T03:56:09.908Z,83.20
2018-03-03T03:58:37.454Z,83.10
2018-03-03T04:01:05.012Z,83.10
2018-03-03T04:03:32.541Z,82.80
2018-03-03T04:06:00.488Z,82.80
2018-03-03T04:08:28.103Z,82.80
2018-03-03T04:10:55.654Z,82.90
2018-03-03T04:13:23.191Z,82.60
2018-03-03T04:15:51.128Z,82.50
2018-03-03T04:18:18.736Z,82.50
2018-03-03T04:20:46.508Z,82.40
2018-03-03T04:23:14.023Z,82.30
2018-03-03T04:25:41.950Z,82.40
2018-03-03T04:28:09.474Z,82.40
2018-03-03T04:30:37.000Z,82.40
2018-03-03T04:33:04.519Z,82.30
2018-03-03T04:35:32.064Z,82.30
2018-03-03T04:37:59.570Z,83.00
2018-03-03T04:40:27.179Z,82.80
2018-03-03T04:42:54.736Z,82.80
2018-03-03T04:45:22.270Z,82.80
2018-03-03T04:47:50.203Z,82.70
2018-03-03T04:50:19.642Z,82.70
2018-03-03T04:52:47.751Z,82.50
2018-03-03T04:55:15.267Z,82.50
2018-03-03T04:57:43.200Z,82.60
2018-03-03T05:00:12.578Z,82.50
2018-03-03T05:05:53.123Z,82.40
2018-03-03T05:08:21.070Z,82.40
2018-03-03T05:10:49.871Z,82.30
2018-03-03T05:13:23.551Z,82.10
2018-03-03T05:16:03.807Z,82.10
2018-03-03T05:18:37.011Z,82.00
2018-03-03T05:21:10.564Z,81.90
2018-03-03T05:23:57.791Z,82.00
2018-03-03T05:26:40.202Z,82.00
2018-03-03T05:29:13.523Z,81.90
2018-03-03T05:31:46.584Z,81.80
2018-03-03T05:34:19.975Z,81.60
2018-03-03T05:36:53.335Z,81.70
2018-03-03T05:39:26.399Z,81.50
2018-03-03T05:41:59.867Z,81.50
2018-03-03T05:44:33.103Z,81.50
2018-03-03T05:47:18.492Z,81.50
2018-03-03T05:49:56.751Z,81.40
2018-03-03T05:52:31.935Z,81.30
2018-03-03T05:55:05.238Z,81.30
2018-03-03T05:57:50.438Z,81.20
2018-03-03T06:00:20.456Z,81.30
2018-03-03T06:03:05.804Z,81.30
2018-03-03T06:05:38.966Z,81.40
2018-03-03T06:08:12.459Z,81.40
2018-03-03T06:10:54.998Z,81.40
2018-03-03T06:13:22.599Z,81.40
2018-03-03T06:15:50.271Z,81.50
2018-03-03T06:18:17.779Z,81.40
2018-03-03T06:20:45.295Z,81.30
2018-03-03T06:23:13.236Z,81.30
2018-03-03T06:25:40.748Z,81.20
2018-03-03T06:28:08.283Z,81.20
2018-03-03T06:30:36.275Z,81.10
2018-03-03T06:33:03.803Z,81.10
2018-03-03T06:35:31.726Z,81.00
2018-03-03T06:37:59.256Z,81.00
2018-03-03T06:40:26.770Z,81.10
2018-03-03T06:42:54.311Z,81.40
2018-03-03T06:45:21.827Z,81.70
2018-03-03T06:47:49.398Z,82.00
2018-03-03T06:50:16.923Z,82.30
2018-03-03T06:52:44.847Z,81.40
2018-03-03T06:55:12.357Z,81.40
2018-03-03T06:57:39.967Z,81.10
2018-03-03T07:00:07.471Z,81.00
2018-03-03T07:02:35.470Z,79.10
2018-03-03T07:05:03.000Z,78.90
2018-03-03T07:07:30.935Z,79.00
2018-03-03T07:09:58.560Z,79.00
2018-03-03T07:12:26.068Z,79.50
2018-03-03T07:15:03.917Z,79.40
2018-03-03T07:17:31.532Z,79.40
2018-03-03T07:19:59.447Z,77.20
2018-03-03T07:22:27.017Z,77.20
2018-03-03T07:24:54.520Z,76.90
2018-03-03T07:27:22.439Z,77.20
2018-03-03T07:29:49.984Z,77.20
2018-03-03T07:32:17.486Z,77.60
2018-03-03T07:34:45.032Z,77.60
2018-03-03T07:37:12.536Z,77.60
2018-03-03T07:39:40.467Z,77.70
2018-03-03T07:42:07.982Z,77.70
2018-03-03T07:44:35.512Z,77.20
2018-03-03T07:47:03.423Z,76.60
2018-03-03T07:49:30.978Z,76.90
2018-03-03T07:51:58.502Z,77.00
2018-03-03T07:54:26.075Z,78.00
2018-03-03T07:57:05.459Z,78.50
2018-03-03T07:59:33.180Z,79.40
2018-03-03T08:02:00.722Z,79.90
2018-03-03T08:04:28.259Z,80.30
2018-03-03T08:06:56.195Z,81.00
2018-03-03T08:09:23.718Z,81.00
2018-03-03T08:11:51.243Z,80.90
2018-03-03T08:14:19.156Z,80.80
2018-03-03T08:16:46.755Z,80.80
2018-03-03T08:19:14.318Z,80.40
2018-03-03T08:21:41.848Z,80.30
2018-03-03T08:24:09.367Z,80.30
2018-03-03T08:26:37.246Z,80.00
2018-03-03T08:29:04.900Z,80.00
2018-03-03T08:31:32.435Z,79.90
2018-03-03T08:34:00.340Z,80.50
2018-03-03T08:36:28.932Z,80.60
2018-03-03T08:38:56.443Z,80.80
2018-03-03T08:41:24.375Z,81.00
2018-03-03T08:43:52.007Z,81.00
2018-03-03T08:46:19.574Z,81.60
2018-03-03T08:48:47.103Z,81.60
2018-03-03T08:51:14.647Z,81.40
2018-03-03T08:53:42.567Z,81.50
2018-03-03T08:56:10.085Z,81.50
2018-03-03T08:58:37.621Z,81.70
2018-03-03T09:01:05.571Z,81.90
2018-03-03T09:03:33.117Z,81.60
2018-03-03T09:06:00.623Z,81.60
2018-03-03T09:08:28.159Z,81.10
2018-03-03T09:10:56.061Z,81.00
2018-03-03T09:13:23.611Z,81.00
2018-03-03T09:15:51.224Z,80.60
2018-03-03T09:18:19.175Z,81.40
2018-03-03T09:20:46.698Z,81.40
2018-03-03T09:23:14.265Z,81.60
2018-03-03T09:25:41.785Z,81.80
2018-03-03T09:28:09.717Z,81.60
2018-03-03T09:30:37.711Z,81.50
2018-03-03T09:33:05.417Z,81.50
2018-03-03T09:35:32.932Z,81.60
2018-03-03T09:38:00.499Z,81.30
2018-03-03T09:40:28.422Z,80.80
2018-03-03T09:42:55.935Z,80.80
2018-03-03T09:45:23.868Z,80.80
2018-03-03T09:47:51.407Z,80.80
2018-03-03T09:50:20.219Z,80.20
2018-03-03T09:52:48.042Z,80.00
2018-03-03T09:55:15.601Z,79.70
2018-03-03T09:57:43.183Z,79.60
2018-03-03T10:00:10.725Z,79.80
2018-03-03T10:02:38.232Z,79.80
2018-03-03T10:05:06.185Z,80.30
2018-03-03T10:07:33.746Z,80.60
2018-03-03T10:10:01.277Z,80.60
2018-03-03T10:12:28.819Z,80.60
2018-03-03T10:14:56.355Z,80.50
2018-03-03T10:17:23.882Z,80.60
2018-03-03T10:19:51.420Z,80.60
2018-03-03T10:22:18.936Z,80.30
2018-03-03T10:24:46.479Z,80.50
2018-03-03T10:27:14.418Z,80.40
2018-03-03T10:29:41.953Z,80.40
2018-03-03T10:32:12.287Z,80.30
2018-03-03T10:34:39.935Z,79.90
2018-03-03T10:37:08.216Z,80.20
2018-03-03T10:39:35.732Z,79.90
2018-03-03T10:42:03.411Z,79.60
2018-03-03T10:44:30.991Z,79.60
2018-03-03T10:46:58.551Z,79.50
2018-03-03T10:49:26.068Z,79.20
2018-03-03T10:51:53.625Z,79.20
2018-03-03T10:54:21.152Z,78.90
2018-03-03T10:56:48.788Z,79.40
2018-03-03T10:59:16.300Z,79.40
2018-03-03T11:01:44.236Z,79.20
2018-03-03T11:04:11.758Z,79.20
2018-03-03T11:06:39.281Z,78.50
2018-03-03T11:09:07.230Z,78.20
2018-03-03T11:11:35.133Z,78.80
2018-03-03T11:14:02.676Z,78.80
2018-03-03T11:16:30.587Z,78.50
2018-03-03T11:18:58.116Z,78.50
2018-03-03T11:21:25.632Z,78.40
2018-03-03T11:23:53.256Z,78.70
2018-03-03T11:26:20.767Z,78.70
2018-03-03T11:28:48.695Z,79.20
2018-03-03T11:31:16.643Z,79.40
2018-03-03T11:33:44.197Z,79.00
2018-03-03T11:36:11.711Z,79.50
2018-03-03T11:38:39.661Z,79.40
2018-03-03T11:41:07.284Z,79.40
2018-03-03T11:43:34.944Z,79.50
2018-03-03T11:46:02.455Z,79.90
2018-03-03T11:48:30.413Z,80.10
2018-03-03T11:50:58.335Z,79.90
2018-03-03T11:53:25.869Z,80.00
2018-03-03T11:55:53.407Z,79.80
2018-03-03T11:58:21.336Z,79.80
2018-03-03T12:00:48.908Z,79.80
2018-03-03T12:03:16.451Z,79.70
2018-03-03T12:05:43.974Z,79.60
2018-03-03T12:08:11.520Z,79.10
2018-03-03T12:10:39.483Z,79.50
2018-03-03T12:13:07.406Z,79.50
2018-03-03T12:15:35.025Z,79.50
2018-03-03T12:18:02.683Z,79.60
2018-03-03T12:20:30.199Z,79.50
2018-03-03T12:22:57.739Z,79.50
2018-03-03T12:25:25.242Z,79.40
2018-03-03T12:27:53.204Z,79.10
2018-03-03T12:30:21.106Z,79.10
2018-03-03T12:32:48.863Z,79.10
2018-03-03T12:35:16.395Z,79.20
2018-03-03T12:37:44.401Z,79.40
2018-03-03T12:40:11.923Z,79.40
2018-03-03T12:42:39.866Z,79.60
2018-03-03T12:45:07.379Z,79.60
2018-03-03T12:47:34.978Z,79.80
2018-03-03T12:50:02.452Z,79.70
2018-03-03T12:52:29.984Z,79.50
2018-03-03T12:54:57.504Z,79.10
2018-03-03T12:57:25.016Z,78.90
2018-03-03T12:59:52.540Z,78.80
2018-03-03T13:02:20.050Z,78.70
2018-03-03T13:04:47.992Z,78.70
2018-03-03T13:07:15.524Z,78.60
2018-03-03T13:09:43.068Z,78.60
2018-03-03T13:12:10.575Z,78.70
2018-03-03T13:14:38.099Z,78.70
2018-03-03T13:17:05.659Z,78.60
2018-03-03T13:19:33.202Z,78.60
2018-03-03T13:22:00.716Z,78.60
2018-03-03T13:24:28.327Z,78.70
2018-03-03T13:26:55.842Z,78.70
2018-03-03T13:29:23.383Z,78.50
2018-03-03T13:31:50.899Z,78.30
2018-03-03T13:34:18.433Z,78.40
2018-03-03T13:36:46.430Z,78.30
2018-03-03T13:39:13.959Z,78.30
2018-03-03T13:41:41.867Z,78.10
2018-03-03T13:44:09.403Z,78.10
2018-03-03T13:46:36.908Z,78.20
2018-03-03T13:49:04.446Z,78.30
2018-03-03T13:51:31.963Z,78.30
2018-03-03T13:53:59.504Z,78.10
2018-03-03T13:56:27.419Z,78.30
2018-03-03T13:58:54.965Z,78.10
2018-03-03T14:01:22.480Z,78.30
2018-03-03T14:03:50.429Z,78.60
2018-03-03T14:06:17.952Z,78.60
2018-03-03T14:08:45.511Z,78.70
2018-03-03T14:11:13.027Z,78.90
2018-03-03T14:13:40.952Z,79.10
2018-03-03T14:16:08.458Z,79.10
2018-03-03T14:18:36.419Z,79.00
2018-03-03T14:21:04.339Z,79.20
2018-03-03T14:23:31.865Z,79.20
2018-03-03T14:25:59.388Z,79.40
2018-03-03T14:28:27.004Z,79.40
2018-03-03T14:30:54.537Z,79.60
2018-03-03T14:33:22.060Z,79.20
2018-03-03T14:35:49.607Z,79.10
2018-03-03T14:38:17.208Z,78.70
2018-03-03T14:40:44.748Z,78.60
2018-03-03T14:43:12.268Z,78.60
2018-03-03T14:45:39.806Z,78.90
2018-03-03T14:48:07.323Z,78.90
2018-03-03T14:50:35.255Z,78.90
2018-03-03T14:53:02.771Z,78.90
2018-03-03T14:55:30.341Z,79.00
2018-03-03T14:57:57.956Z,79.10
2018-03-03T15:00:25.530Z,79.50
2018-03-03T15:02:53.434Z,79.50
2018-03-03T15:05:20.959Z,79.50
2018-03-03T15:07:48.891Z,79.70
2018-03-03T15:10:16.519Z,79.80
2018-03-03T15:12:44.088Z,79.90
2018-03-03T15:15:11.602Z,80.00
2018-03-03T15:17:39.567Z,79.90
2018-03-03T15:20:07.475Z,79.80
2018-03-03T15:22:35.009Z,79.80
2018-03-03T15:25:02.532Z,80.00
2018-03-03T15:27:30.063Z,80.00
2018-03-03T15:29:57.575Z,80.30
2018-03-03T15:32:25.516Z,80.40
2018-03-03T15:34:53.050Z,80.40
2018-03-03T15:37:20.604Z,80.50
2018-03-03T15:39:48.116Z,80.80
2018-03-03T15:42:16.053Z,80.90
2018-03-03T15:44:43.580Z,80.90
2018-03-03T15:47:11.107Z,81.00
2018-03-03T15:49:38.712Z,81.10
2018-03-03T15:52:06.267Z,81.20
2018-03-03T15:54:33.825Z,81.40
2018-03-03T15:57:01.345Z,81.20
2018-03-03T15:59:28.878Z,81.10
2018-03-03T16:01:56.799Z,81.40
2018-03-03T16:04:24.358Z,81.40
2018-03-03T16:06:51.914Z,81.30
2018-03-03T16:09:19.449Z,81.30
2018-03-03T16:11:46.973Z,81.50
2018-03-03T16:14:14.922Z,81.70
2018-03-03T16:16:42.628Z,81.70
2018-03-03T16:19:10.188Z,81.70
2018-03-03T16:21:37.736Z,81.50
2018-03-03T16:24:05.662Z,81.70
2018-03-03T16:26:33.195Z,81.70
2018-03-03T16:29:00.722Z,81.90
2018-03-03T16:31:28.619Z,81.90
2018-03-03T16:33:56.176Z,81.90
2018-03-03T16:36:23.707Z,82.10
2018-03-03T16:38:51.643Z,82.30
2018-03-03T16:41:19.167Z,82.30
2018-03-03T16:43:46.703Z,82.50
2018-03-03T16:46:14.290Z,82.50
2018-03-03T16:48:41.819Z,82.50
2018-03-03T16:51:09.386Z,82.30
2018-03-03T16:53:36.901Z,82.10
2018-03-03T16:56:04.868Z,82.50
2018-03-03T16:58:32.787Z,82.70
2018-03-03T17:01:00.333Z,82.70
2018-03-03T17:03:27.989Z,82.80
2018-03-03T17:05:55.551Z,82.80
2018-03-03T17:08:23.080Z,83.10
2018-03-03T17:10:51.013Z,83.00
2018-03-03T17:13:18.535Z,83.00
2018-03-03T17:15:46.073Z,83.10
2018-03-03T17:18:13.993Z,83.10
2018-03-03T17:20:42.232Z,82.90
2018-03-03T17:23:09.852Z,82.90
2018-03-03T17:25:37.404Z,82.80
2018-03-03T17:28:04.921Z,82.80
2018-03-03T17:30:32.459Z,82.90
2018-03-03T17:32:59.968Z,82.90
2018-03-03T17:35:27.608Z,82.80
2018-03-03T17:37:55.134Z,82.90
2018-03-03T17:40:22.687Z,83.20
2018-03-03T17:42:50.602Z,83.10
2018-03-03T17:45:18.148Z,83.10
2018-03-03T17:47:45.658Z,83.00
2018-03-03T17:50:13.675Z,83.00
2018-03-03T17:52:41.199Z,83.00
2018-03-03T17:55:09.107Z,82.90
2018-03-03T17:57:36.627Z,82.90
2018-03-03T18:00:04.551Z,82.80
2018-03-03T18:02:32.092Z,82.80
2018-03-03T18:04:59.603Z,82.70
2018-03-03T18:07:27.527Z,82.70
2018-03-03T18:09:55.135Z,82.70
2018-03-03T18:12:23.074Z,82.60
2018-03-03T18:14:50.727Z,82.60
2018-03-03T18:17:18.273Z,82.50
2018-03-03T18:19:45.790Z,82.50
2018-03-03T18:22:13.319Z,82.50
2018-03-03T18:24:41.432Z,82.50
2018-03-03T18:27:09.072Z,82.50
2018-03-03T18:29:36.985Z,82.50
2018-03-03T18:32:04.547Z,82.50
2018-03-03T18:34:32.137Z,82.50
2018-03-03T18:37:00.080Z,82.40
2018-03-03T18:39:27.705Z,82.30
2018-03-03T18:41:55.238Z,82.40
2018-03-03T18:44:23.145Z,82.40
2018-03-03T18:46:50.664Z,82.40
2018-03-03T18:49:18.592Z,82.50
2018-03-03T18:51:46.109Z,82.50
2018-03-03T18:54:13.643Z,82.60
2018-03-03T18:56:41.552Z,82.50
2018-03-03T18:59:09.198Z,82.50
2018-03-03T19:01:36.703Z,82.70
2018-03-03T19:04:04.231Z,83.10
2018-03-03T19:06:31.754Z,83.40
2018-03-03T19:08:59.690Z,83.40
2018-03-03T19:11:27.227Z,83.40
2018-03-03T19:13:54.771Z,83.30
2018-03-03T19:16:22.292Z,83.50
2018-03-03T19:18:50.649Z,84.00
2018-03-03T19:21:18.788Z,84.20
2018-03-03T19:23:46.332Z,84.20
2018-03-03T19:26:13.870Z,84.00
2018-03-03T19:28:41.460Z,84.00
2018-03-03T19:31:09.019Z,83.80
2018-03-03T19:33:36.991Z,83.80
2018-03-03T19:36:04.511Z,83.80
2018-03-03T19:38:32.052Z,83.70
2018-03-03T19:40:59.967Z,83.90
2018-03-03T19:43:27.496Z,83.90
2018-03-03T19:45:55.004Z,83.90
2018-03-03T19:48:22.550Z,84.00
2018-03-03T19:50:50.076Z,83.80
2018-03-03T19:53:17.636Z,83.70
2018-03-03T19:55:45.224Z,83.70
2018-03-03T19:58:12.755Z,83.50
2018-03-03T20:00:40.259Z,83.40
2018-03-03T20:03:07.800Z,83.40
2018-03-03T20:05:35.318Z,83.80
2018-03-03T20:08:02.852Z,83.80
2018-03-03T20:10:30.784Z,83.50
2018-03-03T20:12:58.528Z,83.50
2018-03-03T20:15:26.181Z,83.80
2018-03-03T20:17:53.720Z,83.70
2018-03-03T20:20:21.237Z,83.70
2018-03-03T20:22:48.763Z,83.70
2018-03-03T20:25:16.288Z,83.90
2018-03-03T20:27:44.196Z,83.80
2018-03-03T20:30:11.727Z,83.80
2018-03-03T20:32:39.236Z,83.70
2018-03-03T20:35:06.768Z,83.70
2018-03-03T20:37:34.277Z,83.50
2018-03-03T20:40:02.195Z,83.50
2018-03-03T20:42:29.736Z,83.50
2018-03-03T20:44:57.305Z,83.50
2018-03-03T20:47:24.864Z,83.50
2018-03-03T20:49:52.409Z,83.40
2018-03-03T20:52:19.928Z,83.40
2018-03-03T20:54:47.937Z,83.70
2018-03-03T20:57:15.599Z,83.70
2018-03-03T20:59:43.260Z,83.70
2018-03-03T21:02:10.857Z,83.70
2018-03-03T21:04:38.388Z,83.90
2018-03-03T21:07:05.907Z,84.10
2018-03-03T21:09:33.835Z,83.80
2018-03-03T21:12:04.079Z,83.80
2018-03-03T21:14:31.627Z,83.80
2018-03-03T21:16:59.147Z,83.70
2018-03-03T21:19:26.712Z,83.80
2018-03-03T21:21:54.223Z,83.50
2018-03-03T21:24:22.141Z,83.50
2018-03-03T21:26:49.663Z,83.50
2018-03-03T21:29:17.188Z,83.50
2018-03-03T21:31:44.704Z,83.50
2018-03-03T21:34:12.236Z,83.40
2018-03-03T21:36:39.763Z,83.40
2018-03-03T21:39:07.293Z,83.30
2018-03-03T21:41:34.802Z,83.20
2018-03-03T21:44:02.733Z,83.10
2018-03-03T21:46:30.255Z,83.10
2018-03-03T21:48:57.783Z,83.10
2018-03-03T21:51:25.713Z,82.90
2018-03-03T21:53:53.327Z,82.90
2018-03-03T21:56:20.856Z,82.90
2018-03-03T21:58:48.768Z,83.90
2018-03-03T22:01:16.290Z,83.90
2018-03-03T22:03:44.292Z,84.10
2018-03-03T22:06:11.849Z,84.10
2018-03-03T22:08:39.382Z,84.20
2018-03-03T22:11:07.311Z,84.60
2018-03-03T22:13:34.834Z,84.60
2018-03-03T22:16:02.361Z,84.80
2018-03-03T22:18:30.287Z,85.20
2018-03-03T22:20:57.813Z,85.40
2018-03-03T22:23:25.339Z,85.40
2018-03-03T22:25:53.259Z,85.50
2018-03-03T22:28:20.822Z,85.50
2018-03-03T22:30:48.404Z,85.50
2018-03-03T22:33:15.917Z,85.50
2018-03-03T22:35:43.430Z,85.60
2018-03-03T22:38:11.368Z,85.50
2018-03-03T22:40:38.910Z,85.50
2018-03-03T22:43:06.446Z,85.50
2018-03-03T22:45:33.967Z,85.60
2018-03-03T22:48:01.516Z,85.70
2018-03-03T22:50:29.052Z,85.90
2018-03-03T22:52:56.567Z,86.10
2018-03-03T22:55:24.101Z,86.10
2018-03-03T22:57:51.609Z,86.10
2018-03-03T23:00:19.144Z,86.20
2018-03-03T23:02:46.734Z,86.50
2018-03-03T23:05:14.404Z,86.30
2018-03-03T23:07:41.907Z,86.30
2018-03-03T23:10:09.843Z,86.30
2018-03-03T23:12:37.348Z,86.30
2018-03-03T23:15:04.887Z,86.30
2018-03-03T23:17:32.800Z,86.60
2018-03-03T23:20:00.368Z,86.50
2018-03-03T23:22:27.888Z,86.70
2018-03-03T23:24:55.419Z,86.70
2018-03-03T23:27:23.338Z,86.80
2018-03-03T23:29:50.858Z,86.80
2018-03-03T23:32:18.759Z,86.80
2018-03-03T23:34:46.284Z,86.70
2018-03-03T23:37:14.204Z,86.80
2018-03-03T23:39:41.738Z,86.80
2018-03-03T23:42:09.243Z,87.10
2018-03-03T23:44:36.786Z,87.10
2018-03-03T23:47:04.331Z,87.20
2018-03-03T23:49:31.851Z,87.20
2018-03-03T23:51:59.375Z,87.30
2018-03-03T23:54:27.030Z,87.30
2018-03-03T23:56:54.560Z,87.30
2018-03-03T23:59:22.077Z,87.00
